createdAt,value
2017-08-27T00:01:10.353Z,22.70
2017-08-27T00:03:37.864Z,22.70
2017-08-27T00:06:06.126Z,22.60
2017-08-27T00:08:33.774Z,22.60
2017-08-27T00:11:01.351Z,22.60
2017-08-27T00:13:28.907Z,22.60
2017-08-27T00:15:56.438Z,22.50
2017-08-27T00:18:23.947Z,22.50
2017-08-27T00:20:51.489Z,22.50
2017-08-27T00:23:18.995Z,22.40
2017-08-27T00:25:46.519Z,22.40
2017-08-27T00:28:14.064Z,22.40
2017-08-27T00:30:41.619Z,22.40
2017-08-27T00:33:09.171Z,22.40
2017-08-27T00:35:36.794Z,22.30
2017-08-27T00:38:04.393Z,22.30
2017-08-27T00:40:31.921Z,22.30
2017-08-27T00:42:59.608Z,22.30
2017-08-27T00:45:27.152Z,22.30
2017-08-27T00:47:54.747Z,22.20
2017-08-27T00:50:22.307Z,22.20
2017-08-27T00:52:50.047Z,22.20
2017-08-27T00:55:19.378Z,22.20
2017-08-27T00:57:46.916Z,22.20
2017-08-27T01:00:15.086Z,22.10
2017-08-27T01:02:42.626Z,22.10
2017-08-27T01:05:10.307Z,22.10
2017-08-27T01:07:37.867Z,22.10
2017-08-27T01:10:05.374Z,22.00
2017-08-27T01:12:32.894Z,22.00
2017-08-27T01:15:00.400Z,21.90
2017-08-27T01:17:28.003Z,21.80
2017-08-27T01:19:55.516Z,21.80
2017-08-27T01:22:23.067Z,21.80
2017-08-27T01:24:50.575Z,21.80
2017-08-27T01:27:18.846Z,21.80
2017-08-27T01:29:46.510Z,21.70
2017-08-27T01:32:14.033Z,21.70
2017-08-27T01:34:41.631Z,21.70
2017-08-27T01:37:10.124Z,21.70
2017-08-27T01:39:37.651Z,21.70
2017-08-27T01:42:05.279Z,21.60
2017-08-27T01:44:32.804Z,21.60
2017-08-27T01:47:00.311Z,21.60
2017-08-27T01:49:27.912Z,21.60
2017-08-27T01:51:55.700Z,21.60
2017-08-27T01:54:23.330Z,21.60
2017-08-27T01:56:51.313Z,21.60
2017-08-27T01:59:19.795Z,21.60
2017-08-27T02:01:47.300Z,21.60
2017-08-27T02:04:14.899Z,21.60
2017-08-27T02:06:42.463Z,21.50
2017-08-27T02:09:10.422Z,21.50
2017-08-27T02:11:37.952Z,21.50
2017-08-27T02:14:05.647Z,21.50
2017-08-27T02:16:33.167Z,21.50
2017-08-27T02:19:00.672Z,21.50
2017-08-27T02:21:28.223Z,21.50
2017-08-27T02:23:55.895Z,21.40
2017-08-27T02:26:23.443Z,21.30
2017-08-27T02:28:51.000Z,21.30
2017-08-27T02:31:18.532Z,21.30
2017-08-27T02:33:46.119Z,21.30
2017-08-27T02:36:13.684Z,21.30
2017-08-27T02:38:41.708Z,21.40
2017-08-27T02:41:09.306Z,21.40
2017-08-27T02:43:36.867Z,21.40
2017-08-27T02:46:04.387Z,21.40
2017-08-27T02:48:31.896Z,21.40
2017-08-27T02:51:00.184Z,21.30
2017-08-27T02:53:27.715Z,21.30
2017-08-27T02:55:55.380Z,21.30
2017-08-27T02:58:23.654Z,21.30
2017-08-27T03:00:51.220Z,21.30
2017-08-27T03:03:18.746Z,21.30
2017-08-27T03:05:46.947Z,21.30
2017-08-27T03:08:14.478Z,21.30
2017-08-27T03:10:43.591Z,21.30
2017-08-27T03:13:11.164Z,21.30
2017-08-27T03:15:38.722Z,21.30
2017-08-27T03:18:06.335Z,21.30
2017-08-27T03:20:33.847Z,21.20
2017-08-27T03:23:01.397Z,21.30
2017-08-27T03:25:28.907Z,21.20
2017-08-27T03:27:56.431Z,21.10
2017-08-27T03:30:24.060Z,21.10
2017-08-27T03:32:51.588Z,21.10
2017-08-27T03:35:19.094Z,21.10
2017-08-27T03:37:46.648Z,21.10
2017-08-27T03:40:14.306Z,21.10
2017-08-27T03:42:41.880Z,21.00
2017-08-27T03:45:10.043Z,20.90
2017-08-27T03:47:37.599Z,20.90
2017-08-27T03:50:05.619Z,20.90
2017-08-27T03:52:33.230Z,20.90
2017-08-27T03:55:00.791Z,20.80
2017-08-27T03:57:28.302Z,20.80
2017-08-27T03:59:55.827Z,20.80
2017-08-27T04:02:23.335Z,20.80
2017-08-27T04:04:51.632Z,20.80
2017-08-27T04:07:19.147Z,20.80
2017-08-27T04:09:46.671Z,20.70
2017-08-27T04:12:14.175Z,20.70
2017-08-27T04:14:41.770Z,20.70
2017-08-27T04:17:09.283Z,20.70
2017-08-27T04:19:36.827Z,20.70
2017-08-27T04:22:04.447Z,20.70
2017-08-27T04:24:32.012Z,20.70
2017-08-27T04:26:59.539Z,20.60
2017-08-27T04:29:27.142Z,20.60
2017-08-27T04:31:54.687Z,20.60
2017-08-27T04:34:23.063Z,20.70
2017-08-27T04:36:50.619Z,20.60
2017-08-27T04:39:18.504Z,20.60
2017-08-27T04:41:46.047Z,20.50
2017-08-27T04:44:14.336Z,20.50
2017-08-27T04:46:41.883Z,20.50
2017-08-27T04:49:09.439Z,20.50
2017-08-27T04:51:36.964Z,20.40
2017-08-27T04:54:05.319Z,20.40
2017-08-27T04:56:32.858Z,20.40
2017-08-27T04:59:00.401Z,20.40
2017-08-27T05:01:27.950Z,20.50
2017-08-27T05:03:55.511Z,20.50
2017-08-27T05:06:23.889Z,20.50
2017-08-27T05:08:51.452Z,20.50
2017-08-27T05:11:18.964Z,20.50
2017-08-27T05:13:46.568Z,20.50
2017-08-27T05:16:14.087Z,20.50
2017-08-27T05:18:41.619Z,20.50
2017-08-27T05:21:09.122Z,20.40
2017-08-27T05:23:37.519Z,20.50
2017-08-27T05:26:05.080Z,20.50
2017-08-27T05:28:32.611Z,20.50
2017-08-27T05:31:00.195Z,20.50
2017-08-27T05:33:27.754Z,20.60
2017-08-27T05:35:56.059Z,20.60
2017-08-27T05:38:23.599Z,20.70
2017-08-27T05:40:51.152Z,20.80
2017-08-27T05:43:18.707Z,20.80
2017-08-27T05:45:46.274Z,20.90
2017-08-27T05:48:13.827Z,20.90
2017-08-27T05:50:41.387Z,20.90
2017-08-27T05:53:08.902Z,21.00
2017-08-27T05:55:36.432Z,21.00
2017-08-27T05:58:03.975Z,21.10
2017-08-27T06:00:31.523Z,21.10
2017-08-27T06:02:59.026Z,21.00
2017-08-27T06:05:26.551Z,21.10
2017-08-27T06:07:54.811Z,21.10
2017-08-27T06:10:23.048Z,21.10
2017-08-27T06:12:50.652Z,21.20
2017-08-27T06:15:18.207Z,21.30
2017-08-27T06:17:46.215Z,21.30
2017-08-27T06:20:14.258Z,21.30
2017-08-27T06:22:41.894Z,21.30
2017-08-27T06:25:09.464Z,21.40
2017-08-27T06:27:37.084Z,21.40
2017-08-27T06:30:04.684Z,21.50
2017-08-27T06:32:32.190Z,21.50
2017-08-27T06:35:01.339Z,21.60
2017-08-27T06:37:28.905Z,21.60
2017-08-27T06:39:57.035Z,21.70
2017-08-27T06:42:24.736Z,21.70
2017-08-27T06:44:52.294Z,21.70
2017-08-27T06:47:19.851Z,21.80
2017-08-27T06:49:48.203Z,21.90
2017-08-27T06:52:15.786Z,21.90
2017-08-27T06:54:43.354Z,22.00
2017-08-27T06:57:10.895Z,22.00
2017-08-27T06:59:38.467Z,22.00
2017-08-27T07:02:06.027Z,22.10
2017-08-27T07:04:33.530Z,22.10
2017-08-27T07:07:01.056Z,22.00
2017-08-27T07:09:28.611Z,22.10
2017-08-27T07:11:56.875Z,22.10
2017-08-27T07:14:25.143Z,22.20
2017-08-27T07:16:52.667Z,22.20
2017-08-27T07:19:20.266Z,22.30
2017-08-27T07:21:47.794Z,22.30
2017-08-27T07:24:15.305Z,22.30
2017-08-27T07:26:42.843Z,22.30
2017-08-27T07:29:10.414Z,22.40
2017-08-27T07:31:37.959Z,22.50
2017-08-27T07:34:05.522Z,22.50
2017-08-27T07:36:33.043Z,22.60
2017-08-27T07:39:00.546Z,22.60
2017-08-27T07:41:28.090Z,22.70
2017-08-27T07:43:55.646Z,22.70
2017-08-27T07:46:23.151Z,22.80
2017-08-27T07:48:50.783Z,22.90
2017-08-27T07:51:18.329Z,22.90
2017-08-27T07:53:46.714Z,23.00
2017-08-27T07:56:14.267Z,23.00
2017-08-27T07:58:42.439Z,23.00
2017-08-27T08:01:09.999Z,23.00
2017-08-27T08:03:38.267Z,23.00
2017-08-27T08:06:06.617Z,23.00
2017-08-27T08:08:34.410Z,23.00
2017-08-27T08:11:02.689Z,23.10
2017-08-27T08:13:30.215Z,23.10
2017-08-27T08:15:58.526Z,23.30
2017-08-27T08:18:26.183Z,23.30
2017-08-27T08:20:53.694Z,23.40
2017-08-27T08:23:21.217Z,23.40
2017-08-27T08:25:48.755Z,23.40
2017-08-27T08:28:16.335Z,23.50
2017-08-27T08:30:43.862Z,23.60
2017-08-27T08:33:11.438Z,23.70
2017-08-27T08:35:39.003Z,23.90
2017-08-27T08:38:06.958Z,24.10
2017-08-27T08:40:34.458Z,24.20
2017-08-27T08:43:01.999Z,24.30
2017-08-27T08:45:29.503Z,24.30
2017-08-27T08:47:57.099Z,24.30
2017-08-27T08:50:24.776Z,24.40
2017-08-27T08:52:52.283Z,24.50
2017-08-27T08:55:19.874Z,24.60
2017-08-27T08:57:47.434Z,24.50
2017-08-27T09:00:15.406Z,24.50
2017-08-27T09:02:42.906Z,24.50
2017-08-27T09:05:10.522Z,24.40
2017-08-27T09:07:38.084Z,24.30
2017-08-27T09:10:05.606Z,24.30
2017-08-27T09:12:33.111Z,24.20
2017-08-27T09:15:00.659Z,24.10
2017-08-27T09:17:28.334Z,24.00
2017-08-27T09:19:55.855Z,24.00
2017-08-27T09:22:23.435Z,23.90
2017-08-27T09:24:51.051Z,23.90
2017-08-27T09:27:19.479Z,23.90
2017-08-27T09:29:47.710Z,23.80
2017-08-27T09:32:15.831Z,23.80
2017-08-27T09:34:43.383Z,23.80
2017-08-27T09:37:10.938Z,23.80
2017-08-27T09:39:38.499Z,23.80
2017-08-27T09:42:06.162Z,23.80
2017-08-27T09:44:34.435Z,23.90
2017-08-27T09:47:01.955Z,23.90
2017-08-27T09:49:29.975Z,24.00
2017-08-27T09:51:57.496Z,24.10
2017-08-27T09:54:24.998Z,24.30
2017-08-27T09:56:52.538Z,24.50
2017-08-27T09:59:21.026Z,24.70
2017-08-27T10:01:48.582Z,24.80
2017-08-27T10:04:16.139Z,24.90
2017-08-27T10:06:44.530Z,24.90
2017-08-27T10:09:12.039Z,24.90
2017-08-27T10:11:39.563Z,25.00
2017-08-27T10:14:08.011Z,25.00
2017-08-27T10:16:35.566Z,25.10
2017-08-27T10:19:04.067Z,25.20
2017-08-27T10:21:31.623Z,25.30
2017-08-27T10:23:59.166Z,25.30
2017-08-27T10:26:27.546Z,25.40
2017-08-27T10:28:55.111Z,25.40
2017-08-27T10:31:22.667Z,25.40
2017-08-27T10:33:50.282Z,25.40
2017-08-27T10:36:17.882Z,25.50
2017-08-27T10:38:45.446Z,25.60
2017-08-27T10:41:13.002Z,25.80
2017-08-27T10:43:40.562Z,26.00
2017-08-27T10:46:08.166Z,26.30
2017-08-27T10:48:35.782Z,26.70
2017-08-27T10:51:03.290Z,27.00
2017-08-27T10:53:30.894Z,27.40
2017-08-27T10:55:58.510Z,27.70
2017-08-27T10:58:26.123Z,27.90
2017-08-27T11:00:53.631Z,28.20
2017-08-27T11:03:21.156Z,28.20
2017-08-27T11:05:48.694Z,28.20
2017-08-27T11:08:16.323Z,28.30
2017-08-27T11:10:43.828Z,28.50
2017-08-27T11:13:11.423Z,28.50
2017-08-27T11:15:38.926Z,28.60
2017-08-27T11:18:06.491Z,28.60
2017-08-27T11:20:34.065Z,28.80
2017-08-27T11:23:02.267Z,29.00
2017-08-27T11:25:29.791Z,29.30
2017-08-27T11:27:57.766Z,29.40
2017-08-27T11:30:25.310Z,29.50
2017-08-27T11:32:52.875Z,29.50
2017-08-27T11:35:20.395Z,29.30
2017-08-27T11:37:47.987Z,29.30
2017-08-27T11:40:15.515Z,29.60
2017-08-27T11:42:43.106Z,29.70
2017-08-27T11:45:10.679Z,30.10
2017-08-27T11:47:38.238Z,30.40
2017-08-27T11:50:05.779Z,30.50
2017-08-27T11:52:33.343Z,30.20
2017-08-27T11:55:00.905Z,29.90
2017-08-27T11:57:28.415Z,29.50
2017-08-27T11:59:55.943Z,29.30
2017-08-27T12:02:23.489Z,28.90
2017-08-27T12:04:51.035Z,28.70
2017-08-27T12:07:19.427Z,28.60
2017-08-27T12:09:46.970Z,28.50
2017-08-27T12:12:14.544Z,28.40
2017-08-27T12:14:42.049Z,28.20
2017-08-27T12:17:09.750Z,28.10
2017-08-27T12:19:37.311Z,28.00
2017-08-27T12:22:04.884Z,28.00
2017-08-27T12:24:32.427Z,28.00
2017-08-27T12:26:59.952Z,27.90
2017-08-27T12:29:27.547Z,27.90
2017-08-27T12:31:55.206Z,27.80
2017-08-27T12:34:22.870Z,27.70
2017-08-27T12:36:51.019Z,27.70
2017-08-27T12:39:18.530Z,27.60
2017-08-27T12:41:46.154Z,27.60
2017-08-27T12:44:13.733Z,27.60
2017-08-27T12:46:41.279Z,27.60
2017-08-27T12:49:08.787Z,27.50
2017-08-27T12:51:36.307Z,27.60
2017-08-27T12:54:03.847Z,27.60
2017-08-27T12:56:31.366Z,27.60
2017-08-27T12:58:58.866Z,27.60
2017-08-27T13:01:26.442Z,27.60
2017-08-27T13:03:53.978Z,27.60
2017-08-27T13:06:21.542Z,27.60
2017-08-27T13:08:49.063Z,27.70
2017-08-27T13:11:17.379Z,27.70
2017-08-27T13:13:44.894Z,27.80
2017-08-27T13:16:12.698Z,27.90
2017-08-27T13:18:40.219Z,27.90
2017-08-27T13:21:07.816Z,28.00
2017-08-27T13:23:35.378Z,28.00
2017-08-27T13:26:02.883Z,28.00
2017-08-27T13:28:30.704Z,28.00
2017-08-27T13:30:58.323Z,28.10
2017-08-27T13:33:25.918Z,28.10
2017-08-27T13:35:54.094Z,28.20
2017-08-27T13:38:21.659Z,28.30
2017-08-27T13:40:49.930Z,28.30
2017-08-27T13:43:18.117Z,28.20
2017-08-27T13:45:46.035Z,28.20
2017-08-27T13:48:13.554Z,28.20
2017-08-27T13:50:41.195Z,28.10
2017-08-27T13:53:08.881Z,28.00
2017-08-27T13:55:36.410Z,28.00
2017-08-27T13:58:04.075Z,28.10
2017-08-27T14:00:31.582Z,28.20
2017-08-27T14:02:59.078Z,28.20
2017-08-27T14:05:26.606Z,28.20
2017-08-27T14:07:54.307Z,28.20
2017-08-27T14:10:21.976Z,28.10
2017-08-27T14:12:49.482Z,28.00
2017-08-27T14:15:17.096Z,27.90
2017-08-27T14:17:44.599Z,28.00
2017-08-27T14:20:12.218Z,28.00
2017-08-27T14:22:39.718Z,27.90
2017-08-27T14:25:07.243Z,27.90
2017-08-27T14:27:34.783Z,27.80
2017-08-27T14:30:03.144Z,27.80
2017-08-27T14:32:30.719Z,27.90
2017-08-27T14:34:58.243Z,27.80
2017-08-27T14:37:25.834Z,27.80
2017-08-27T14:39:53.390Z,27.80
2017-08-27T14:42:20.946Z,27.80
2017-08-27T14:44:48.447Z,27.90
2017-08-27T14:47:16.070Z,28.20
2017-08-27T14:49:43.735Z,28.90
2017-08-27T14:52:11.287Z,29.30
2017-08-27T14:54:38.850Z,29.30
2017-08-27T14:57:06.424Z,29.20
2017-08-27T14:59:33.931Z,29.00
2017-08-27T15:02:01.543Z,29.00
2017-08-27T15:04:29.366Z,29.30
2017-08-27T15:06:56.963Z,30.20
2017-08-27T15:09:25.228Z,31.00
2017-08-27T15:11:52.787Z,32.20
2017-08-27T15:14:20.347Z,33.30
2017-08-27T15:16:47.919Z,34.20
2017-08-27T15:19:15.439Z,35.20
2017-08-27T15:21:43.042Z,35.70
2017-08-27T15:24:10.570Z,35.40
2017-08-27T15:26:38.070Z,35.00
2017-08-27T15:29:05.721Z,34.20
2017-08-27T15:31:33.223Z,32.90
2017-08-27T15:34:00.818Z,31.80
2017-08-27T15:36:28.318Z,31.00
2017-08-27T15:38:55.843Z,30.30
2017-08-27T15:41:23.599Z,29.70
2017-08-27T15:43:51.154Z,29.20
2017-08-27T15:46:18.656Z,28.90
2017-08-27T15:48:46.270Z,28.70
2017-08-27T15:51:13.834Z,28.40
2017-08-27T15:53:41.374Z,28.10
2017-08-27T15:56:08.878Z,27.90
2017-08-27T15:58:36.406Z,27.80
2017-08-27T16:01:05.403Z,27.70
2017-08-27T16:03:33.367Z,27.60
2017-08-27T16:06:00.927Z,27.40
2017-08-27T16:08:28.706Z,27.20
2017-08-27T16:10:56.227Z,27.10
2017-08-27T16:13:23.807Z,27.00
2017-08-27T16:15:51.327Z,27.00
2017-08-27T16:18:18.835Z,26.90
2017-08-27T16:20:47.083Z,26.90
2017-08-27T16:23:14.598Z,26.80
2017-08-27T16:25:42.119Z,26.70
2017-08-27T16:28:09.624Z,26.60
2017-08-27T16:30:37.144Z,26.60
2017-08-27T16:33:04.647Z,26.50
2017-08-27T16:35:32.163Z,26.60
2017-08-27T16:40:50.231Z,26.60
2017-08-27T16:43:17.735Z,26.60
2017-08-27T16:45:45.334Z,26.50
2017-08-27T16:48:12.846Z,26.60
2017-08-27T16:50:40.370Z,26.60
2017-08-27T16:53:07.872Z,26.50
2017-08-27T16:55:36.170Z,26.60
2017-08-27T16:58:03.734Z,26.60
2017-08-27T17:00:31.290Z,26.60
2017-08-27T17:02:58.817Z,26.60
2017-08-27T17:05:26.410Z,26.60
2017-08-27T17:07:53.935Z,26.60
2017-08-27T17:10:21.439Z,26.60
2017-08-27T17:12:48.959Z,26.60
2017-08-27T17:15:16.546Z,26.60
2017-08-27T17:17:44.191Z,26.50
2017-08-27T17:20:11.699Z,26.50
2017-08-27T17:22:39.215Z,26.50
2017-08-27T17:25:06.810Z,26.40
2017-08-27T17:27:34.331Z,26.30
2017-08-27T17:30:01.839Z,26.30
2017-08-27T17:32:29.363Z,26.20
2017-08-27T17:34:56.871Z,26.20
2017-08-27T17:37:24.403Z,26.10
2017-08-27T17:39:51.906Z,26.00
2017-08-27T17:42:19.422Z,26.00
2017-08-27T17:44:46.922Z,25.90
2017-08-27T17:47:15.295Z,25.80
2017-08-27T17:49:42.799Z,25.70
2017-08-27T17:52:11.024Z,25.70
2017-08-27T17:54:38.547Z,25.70
2017-08-27T17:57:06.046Z,25.60
2017-08-27T17:59:33.567Z,25.60
2017-08-27T18:02:01.068Z,25.50
2017-08-27T18:04:28.586Z,25.50
2017-08-27T18:06:56.092Z,25.50
2017-08-27T18:09:23.614Z,25.40
2017-08-27T18:11:51.995Z,25.40
2017-08-27T18:14:19.518Z,25.30
2017-08-27T18:16:47.070Z,25.20
2017-08-27T18:19:14.590Z,25.20
2017-08-27T18:21:42.094Z,25.10
2017-08-27T18:24:10.399Z,25.00
2017-08-27T18:26:38.336Z,24.90
2017-08-27T18:29:05.887Z,24.80
2017-08-27T18:31:33.395Z,24.80
2017-08-27T18:34:00.982Z,24.70
2017-08-27T18:36:28.550Z,24.70
2017-08-27T18:38:56.056Z,24.70
2017-08-27T18:41:23.575Z,24.70
2017-08-27T18:43:51.128Z,24.60
2017-08-27T18:46:18.659Z,24.60
2017-08-27T18:48:46.451Z,24.50
2017-08-27T18:51:14.107Z,24.50
2017-08-27T18:53:41.618Z,24.40
2017-08-27T18:56:09.224Z,24.40
2017-08-27T18:58:37.401Z,24.40
2017-08-27T19:01:04.973Z,24.30
2017-08-27T19:03:32.474Z,24.30
2017-08-27T19:06:00.075Z,24.30
2017-08-27T19:08:27.634Z,24.20
2017-08-27T19:10:55.163Z,24.20
2017-08-27T19:13:23.427Z,24.20
2017-08-27T19:15:50.954Z,24.20
2017-08-27T19:18:18.458Z,24.10
2017-08-27T19:20:45.990Z,24.10
2017-08-27T19:23:14.114Z,24.00
2017-08-27T19:25:41.671Z,24.00
2017-08-27T19:28:09.691Z,23.90
2017-08-27T19:30:37.303Z,23.90
2017-08-27T19:33:04.822Z,23.90
2017-08-27T19:35:32.939Z,23.80
2017-08-27T19:38:00.805Z,23.70
2017-08-27T19:40:28.314Z,23.60
2017-08-27T19:42:55.919Z,23.60
2017-08-27T19:45:23.489Z,23.60
2017-08-27T19:47:51.014Z,23.50
2017-08-27T19:50:19.390Z,23.50
2017-08-27T19:52:46.978Z,23.50
2017-08-27T19:55:14.482Z,23.50
2017-08-27T19:57:42.090Z,23.40
2017-08-27T20:00:09.657Z,23.40
2017-08-27T20:02:37.175Z,23.30
2017-08-27T20:05:04.678Z,23.20
2017-08-27T20:07:32.195Z,23.20
2017-08-27T20:09:59.991Z,23.20
2017-08-27T20:12:27.543Z,23.10
2017-08-27T20:14:55.047Z,23.10
2017-08-27T20:17:22.671Z,23.00
2017-08-27T20:19:50.239Z,23.00
2017-08-27T20:22:17.782Z,23.00
2017-08-27T20:24:45.347Z,22.90
2017-08-27T20:27:12.854Z,22.90
2017-08-27T20:29:40.463Z,22.80
2017-08-27T20:32:08.083Z,22.80
2017-08-27T20:34:35.730Z,22.70
2017-08-27T20:37:03.237Z,22.70
2017-08-27T20:39:30.797Z,22.70
2017-08-27T20:41:58.350Z,22.70
2017-08-27T20:44:25.915Z,22.70
2017-08-27T20:46:53.475Z,22.60
2017-08-27T20:49:21.034Z,22.50
2017-08-27T20:51:48.595Z,22.40
2017-08-27T20:54:16.150Z,22.40
2017-08-27T20:56:43.651Z,22.40
2017-08-27T20:59:11.275Z,22.40
2017-08-27T21:01:39.650Z,22.30
2017-08-27T21:04:07.222Z,22.30
2017-08-27T21:06:34.870Z,22.30
2017-08-27T21:09:02.391Z,22.30
2017-08-27T21:11:29.982Z,22.20
2017-08-27T21:13:57.547Z,22.20
2017-08-27T21:16:25.106Z,22.00
2017-08-27T21:18:52.662Z,22.00
2017-08-27T21:21:20.238Z,22.00
2017-08-27T21:23:47.743Z,21.90
2017-08-27T21:26:15.346Z,21.70
2017-08-27T21:28:42.850Z,21.70
2017-08-27T21:31:11.175Z,21.70
2017-08-27T21:33:38.690Z,21.70
2017-08-27T21:36:06.294Z,21.70
2017-08-27T21:38:33.851Z,21.70
2017-08-27T21:41:01.371Z,21.70
2017-08-27T21:43:28.875Z,21.80
2017-08-27T21:45:56.430Z,21.80
2017-08-27T21:48:24.627Z,21.80
2017-08-27T21:50:52.263Z,21.70
2017-08-27T21:53:19.762Z,21.60
2017-08-27T21:55:47.287Z,21.50
2017-08-27T21:58:15.658Z,21.50
2017-08-27T22:00:43.178Z,21.50
2017-08-27T22:03:10.763Z,21.50
2017-08-27T22:05:39.051Z,21.60
2017-08-27T22:08:06.555Z,21.60
2017-08-27T22:10:34.083Z,21.50
2017-08-27T22:13:02.339Z,21.50
2017-08-27T22:15:30.324Z,21.40
2017-08-27T22:17:57.866Z,21.30
2017-08-27T22:20:25.427Z,21.30
2017-08-27T22:22:52.951Z,21.20
2017-08-27T22:25:20.494Z,21.20
2017-08-27T22:27:48.033Z,21.10
2017-08-27T22:30:15.957Z,21.20
2017-08-27T22:32:43.526Z,21.10
2017-08-27T22:35:11.500Z,21.20
2017-08-27T22:37:39.050Z,21.10
2017-08-27T22:40:07.335Z,21.20
2017-08-27T22:42:34.850Z,21.10
2017-08-27T22:45:03.143Z,21.10
2017-08-27T22:47:30.729Z,21.10
2017-08-27T22:49:58.283Z,21.10
2017-08-27T22:52:25.803Z,21.10
2017-08-27T22:54:53.407Z,21.00
2017-08-27T22:57:20.994Z,21.00
2017-08-27T22:59:48.491Z,21.00
2017-08-27T23:02:15.995Z,21.00
2017-08-27T23:04:43.542Z,21.00
2017-08-27T23:07:11.111Z,21.00
2017-08-27T23:09:38.659Z,21.00
2017-08-27T23:12:06.167Z,20.90
2017-08-27T23:14:33.686Z,20.90
2017-08-27T23:17:01.954Z,20.80
2017-08-27T23:19:29.475Z,20.80
2017-08-27T23:21:57.071Z,20.80
2017-08-27T23:24:24.595Z,20.80
2017-08-27T23:26:52.104Z,20.70
2017-08-27T23:29:19.846Z,20.70
2017-08-27T23:31:47.510Z,20.70
2017-08-27T23:34:15.030Z,20.70
2017-08-27T23:36:42.618Z,20.70
2017-08-27T23:39:11.102Z,20.70
2017-08-27T23:41:38.663Z,20.70
2017-08-27T23:44:06.458Z,20.60
2017-08-27T23:46:34.086Z,20.60
2017-08-27T23:49:01.647Z,20.60
2017-08-27T23:51:29.202Z,20.60
2017-08-27T23:53:56.767Z,20.60
2017-08-27T23:56:24.319Z,20.60
2017-08-27T23:58:51.826Z,20.60
